This is the latest recevied weather packets stored in our database for station/object KD9IXX-13. If no packets are shown the sender has not sent any weather packets the latest 10 day(s).
| Time | Temp. | Humidity | Pressure | Rain* | Wind** | Luminosity | Snow |
|---|---|---|---|---|---|---|---|
| 1787443202 | 23.89° C | 62% | 1016 hPa | 0 mm | - | 26 W/m² | - |
| 1787442902 | 24.44° C | 61% | 1016 hPa | 0 mm | - | 29 W/m² | - |
| 1787442002 | 25° C | 59% | 1015.8 hPa | 0 mm | - | 37 W/m² | - |
| 1787441403 | 25.56° C | 56% | 1015.8 hPa | 0 mm | - | 76 W/m² | - |
| 1787441103 | 25.56° C | 56% | 1015.8 hPa | 0 mm | - | 68 W/m² | - |
| 1787440502 | 25.56° C | 56% | 1015.8 hPa | 0 mm | - | 80 W/m² | - |
| 1787440202 | 25.56° C | 54% | 1015.9 hPa | 0 mm | - | 95 W/m² | - |
| 1787439002 | 26.11° C | 54% | 1015.8 hPa | 0 mm | - | 149 W/m² | - |
| 1787438702 | 26.67° C | 54% | 1015.7 hPa | 0 mm | - | 158 W/m² | - |
| 1787438402 | 26.11° C | 52% | 1015.6 hPa | 0 mm | - | 163 W/m² | - |
| 1787437802 | 26.67° C | 51% | 1015.7 hPa | 0 mm | - | 205 W/m² | - |
| 1787437502 | 26.67° C | 53% | 1015.6 hPa | 0 mm | - | 224 W/m² | - |
| 1787437202 | 26.67° C | 53% | 1015.6 hPa | 0 mm | - | 237 W/m² | - |
| 1787436902 | 26.67° C | 51% | 1015.5 hPa | 0 mm | - | 254 W/m² | - |
| 1787436002 | 26.67° C | 50% | 1015.3 hPa | 0 mm | - | 290 W/m² | - |
| 1787435702 | 26.67° C | 53% | 1015.3 hPa | 0 mm | - | 317 W/m² | - |
| 1787435402 | 26.67° C | 55% | 1015.4 hPa | 0 mm | - | 314 W/m² | - |
| 1787434802 | 27.22° C | 53% | 1015.4 hPa | 0 mm | - | 367 W/m² | - |
| 1787433902 | 27.22° C | 49% | 1015.6 hPa | 0 mm | - | 396 W/m² | - |
| 1787433302 | 27.22° C | 53% | 1015.5 hPa | 0 mm | - | 436 W/m² | - |
| 1787432702 | 27.22° C | 53% | 1015.4 hPa | 0 mm | - | 468 W/m² | - |
| 1787431502 | 27.78° C | 51% | 1015.5 hPa | 0 mm | - | 512 W/m² | - |
| 1787430903 | 27.22° C | 51% | 1015.5 hPa | 0 mm | - | 537 W/m² | - |
| 1787430602 | 27.22° C | 52% | 1015.5 hPa | 0 mm | - | 553 W/m² | - |
| 1787429703 | 26.67° C | 55% | 1015.3 hPa | 0 mm | - | 438 W/m² | - |
* Rain latest hour (hover to see other rain measurements)
** Current wind speed in m/s (hover to see current wind gust speed)